createdAt,value
2023-11-15T00:01:48.421Z,100765.47
2023-11-15T00:04:15.539Z,100770.69
2023-11-15T00:06:42.931Z,100774.94
2023-11-15T00:09:10.786Z,100775.81
2023-11-15T00:11:40.275Z,100768.91
2023-11-15T00:14:09.972Z,100779.38
2023-11-15T00:16:37.276Z,100779.50
2023-11-15T00:19:04.944Z,100781.25
2023-11-15T00:21:32.231Z,100777.81
2023-11-15T00:24:02.144Z,100783.84
2023-11-15T00:26:30.712Z,100776.91
2023-11-15T00:28:58.675Z,100781.28
2023-11-15T00:31:26.152Z,100778.69
2023-11-15T00:33:53.352Z,100784.72
2023-11-15T00:36:21.334Z,100791.69
2023-11-15T00:38:48.733Z,100788.28
2023-11-15T00:41:16.154Z,100795.25
2023-11-15T00:43:44.278Z,100792.78
2023-11-15T00:46:14.542Z,100802.34
2023-11-15T00:48:43.479Z,100804.91
2023-11-15T00:51:10.556Z,100804.81
2023-11-15T00:53:37.899Z,100811.75
2023-11-15T00:56:05.562Z,100813.50
2023-11-15T00:58:40.489Z,100817.06
2023-11-15T01:01:12.436Z,100816.25
2023-11-15T01:03:57.741Z,100822.28
2023-11-15T01:06:26.565Z,100827.53
2023-11-15T01:08:56.180Z,100829.28
2023-11-15T01:11:24.865Z,100834.44
2023-11-15T01:13:52.037Z,100836.97
2023-11-15T01:16:19.485Z,100851.69
2023-11-15T01:18:46.783Z,100863.94
2023-11-15T01:21:14.132Z,100861.53
2023-11-15T01:23:41.721Z,100853.03
2023-11-15T01:26:10.741Z,100849.84
2023-11-15T01:28:38.373Z,100857.75
2023-11-15T01:31:05.899Z,100870.75
2023-11-15T01:33:33.206Z,100868.16
2023-11-15T01:36:00.351Z,100877.72
2023-11-15T01:38:27.705Z,100881.22
2023-11-15T01:40:55.207Z,100884.63
2023-11-15T01:43:22.966Z,100883.75
2023-11-15T01:45:52.494Z,100898.38
2023-11-15T01:48:20.042Z,100900.94
2023-11-15T01:50:48.275Z,100906.13
2023-11-15T01:53:15.927Z,100899.97
2023-11-15T01:55:45.216Z,100903.41
2023-11-15T01:58:16.502Z,100909.38
2023-11-15T02:00:44.292Z,100913.69
2023-11-15T02:03:12.880Z,100920.53
2023-11-15T02:05:40.135Z,100917.03
2023-11-15T02:08:08.353Z,100925.69
2023-11-15T02:10:36.069Z,100936.06
2023-11-15T02:13:03.535Z,100925.66
2023-11-15T02:15:31.146Z,100940.38
2023-11-15T02:18:03.910Z,100936.91
2023-11-15T02:20:31.665Z,100942.03
2023-11-15T02:23:00.723Z,100956.72
2023-11-15T02:25:27.866Z,100946.34
2023-11-15T02:27:54.984Z,100953.38
2023-11-15T02:30:24.848Z,100950.84
2023-11-15T02:32:52.013Z,100954.31
2023-11-15T02:35:19.081Z,100959.50
2023-11-15T02:37:46.466Z,100961.22
2023-11-15T02:40:13.567Z,100962.94
2023-11-15T02:42:40.886Z,100947.28
2023-11-15T02:45:09.407Z,100949.91
2023-11-15T02:47:39.142Z,100956.81
2023-11-15T02:50:06.826Z,100962.94
2023-11-15T02:52:37.154Z,100949.13
2023-11-15T02:55:05.344Z,100958.63
2023-11-15T02:57:32.532Z,100958.69
2023-11-15T02:59:59.909Z,100954.38
2023-11-15T03:02:27.128Z,100956.97
2023-11-15T03:04:54.334Z,100953.50
2023-11-15T03:07:21.492Z,100968.25
2023-11-15T03:09:48.599Z,100968.28
2023-11-15T03:12:15.726Z,100970.09
2023-11-15T03:14:43.056Z,100976.16
2023-11-15T03:17:17.119Z,100974.44
2023-11-15T03:19:45.498Z,100983.97
2023-11-15T03:22:16.136Z,100989.16
2023-11-15T03:24:46.819Z,100991.78
2023-11-15T03:27:14.134Z,100985.69
2023-11-15T03:29:41.258Z,101000.34
2023-11-15T03:32:08.890Z,101000.38
2023-11-15T03:34:37.014Z,101004.69
2023-11-15T03:37:06.022Z,101002.94
2023-11-15T03:39:34.063Z,101000.34
2023-11-15T03:42:01.615Z,101005.53
2023-11-15T03:44:28.882Z,101008.13
2023-11-15T03:46:56.001Z,101010.69
2023-11-15T03:49:23.379Z,101013.34
2023-11-15T03:51:51.038Z,101015.06
2023-11-15T03:54:18.270Z,101013.34
2023-11-15T03:56:46.339Z,101021.97
2023-11-15T03:59:13.434Z,101015.88
2023-11-15T04:01:52.125Z,101026.25
2023-11-15T04:04:25.071Z,101022.78
2023-11-15T04:06:52.848Z,101027.97
2023-11-15T04:09:20.150Z,101028.88
2023-11-15T04:11:47.589Z,101032.34
2023-11-15T04:14:15.266Z,101039.31
2023-11-15T04:16:50.175Z,101033.28
2023-11-15T04:19:18.723Z,101043.69
2023-11-15T04:21:46.276Z,101044.53
2023-11-15T04:24:14.269Z,101048.03
2023-11-15T04:26:42.005Z,101053.31
2023-11-15T04:29:09.850Z,101057.72
2023-11-15T04:31:37.971Z,101050.72
2023-11-15T04:34:06.440Z,101057.66
2023-11-15T04:36:34.613Z,101064.63
2023-11-15T04:39:09.591Z,101062.09
2023-11-15T04:41:38.627Z,101067.38
2023-11-15T04:44:06.064Z,101075.13
2023-11-15T04:46:35.781Z,101082.06
2023-11-15T04:49:08.386Z,101074.31
2023-11-15T04:51:35.901Z,101068.28
2023-11-15T04:54:03.149Z,101082.09
2023-11-15T04:56:30.422Z,101077.78
2023-11-15T04:58:57.872Z,101083.81
2023-11-15T05:01:25.837Z,101083.72
2023-11-15T05:03:53.255Z,101089.78
2023-11-15T05:06:23.091Z,101089.88
2023-11-15T05:08:50.469Z,101094.16
2023-11-15T05:11:17.683Z,101094.09
2023-11-15T05:13:46.400Z,101100.97
2023-11-15T05:16:15.756Z,101090.56
2023-11-15T05:18:42.840Z,101094.84
2023-11-15T05:21:10.272Z,101088.75
2023-11-15T05:23:37.752Z,101093.91
2023-11-15T05:26:05.074Z,101096.50
2023-11-15T05:28:32.165Z,101090.56
2023-11-15T05:30:59.559Z,101112.19
2023-11-15T05:33:26.686Z,101110.47
2023-11-15T05:35:57.948Z,101106.22
2023-11-15T05:38:29.250Z,101109.59
2023-11-15T05:40:56.553Z,101111.41
2023-11-15T05:43:23.612Z,101108.88
2023-11-15T05:45:50.682Z,101109.75
2023-11-15T05:48:17.836Z,101105.44
2023-11-15T05:50:45.035Z,101109.78
2023-11-15T05:53:12.312Z,101109.78
2023-11-15T05:55:41.468Z,101108.97
2023-11-15T05:58:09.026Z,101121.09
2023-11-15T06:00:36.268Z,101117.59
2023-11-15T06:03:05.106Z,101125.38
2023-11-15T06:05:32.602Z,101126.22
2023-11-15T06:08:02.852Z,101135.84
2023-11-15T06:10:35.604Z,101133.22
2023-11-15T06:13:02.708Z,101121.91
2023-11-15T06:15:29.795Z,101129.66
2023-11-15T06:17:57.028Z,101129.59
2023-11-15T06:20:24.204Z,101131.31
2023-11-15T06:22:52.091Z,101132.25
2023-11-15T06:25:22.940Z,101137.50
2023-11-15T06:27:50.140Z,101147.16
2023-11-15T06:30:18.397Z,101148.88
2023-11-15T06:32:46.231Z,101139.47
2023-11-15T06:35:20.351Z,101151.66
2023-11-15T06:37:48.550Z,101152.56
2023-11-15T06:40:19.867Z,101152.66
2023-11-15T06:42:47.364Z,101154.31
2023-11-15T06:45:14.587Z,101164.75
2023-11-15T06:47:44.775Z,101169.94
2023-11-15T06:50:12.168Z,101172.56
2023-11-15T06:52:39.577Z,101169.16
2023-11-15T06:55:12.619Z,101166.66
2023-11-15T06:57:42.894Z,101173.66
2023-11-15T07:00:14.578Z,101176.38
2023-11-15T07:02:44.725Z,101184.13
2023-11-15T07:05:12.326Z,101191.00
2023-11-15T07:07:39.792Z,101206.53
2023-11-15T07:10:08.029Z,101205.69
2023-11-15T07:12:38.135Z,101206.63
2023-11-15T07:15:05.905Z,101208.34
2023-11-15T07:17:33.611Z,101202.25
2023-11-15T07:20:00.906Z,101209.97
2023-11-15T07:22:28.047Z,101203.88
2023-11-15T07:24:55.506Z,101206.41
2023-11-15T07:27:25.658Z,101212.44
2023-11-15T07:29:54.036Z,101220.22
2023-11-15T07:32:21.820Z,101216.78
2023-11-15T07:34:48.939Z,101215.91
2023-11-15T07:37:16.170Z,101224.59
2023-11-15T07:39:43.274Z,101226.31
2023-11-15T07:42:10.405Z,101231.47
2023-11-15T07:44:37.616Z,101229.75
2023-11-15T07:47:05.021Z,101235.78
2023-11-15T07:49:32.141Z,101245.28
2023-11-15T07:52:00.345Z,101243.56
2023-11-15T07:54:27.640Z,101252.25
2023-11-15T07:56:54.749Z,101253.06
2023-11-15T07:59:23.242Z,101251.28
2023-11-15T08:01:50.444Z,101256.47
2023-11-15T08:04:17.827Z,101262.50
2023-11-15T08:06:45.186Z,101259.06
2023-11-15T08:09:26.384Z,101268.59
2023-11-15T08:11:58.053Z,101268.53
2023-11-15T08:14:27.043Z,101278.84
2023-11-15T08:16:54.744Z,101283.94
2023-11-15T08:19:21.924Z,101283.75
2023-11-15T08:21:49.862Z,101289.63
2023-11-15T08:24:23.536Z,101292.97
2023-11-15T08:26:54.443Z,101294.69
2023-11-15T08:29:22.627Z,101288.59
2023-11-15T08:31:50.622Z,101303.31
2023-11-15T08:34:22.447Z,101295.59
2023-11-15T08:36:51.068Z,101295.66
2023-11-15T08:39:18.447Z,101296.97
2023-11-15T08:41:48.349Z,101299.31
2023-11-15T08:44:19.479Z,101293.53
2023-11-15T08:46:47.112Z,101308.38
2023-11-15T08:49:17.782Z,101305.38
2023-11-15T08:51:48.779Z,101308.63
2023-11-15T08:54:17.578Z,101307.16
2023-11-15T08:56:47.007Z,101302.75
2023-11-15T08:59:17.422Z,101307.34
2023-11-15T09:01:46.546Z,101309.59
2023-11-15T09:04:14.604Z,101303.69
2023-11-15T09:06:49.290Z,101301.22
2023-11-15T09:09:17.677Z,101320.16
2023-11-15T09:11:46.156Z,101318.47
2023-11-15T09:14:16.066Z,101326.16
2023-11-15T09:16:43.787Z,101337.75
2023-11-15T09:19:17.722Z,101320.72
2023-11-15T09:21:49.893Z,101318.34
2023-11-15T09:24:23.852Z,101329.00
2023-11-15T09:26:51.645Z,101323.88
2023-11-15T09:29:18.889Z,101329.84
2023-11-15T09:31:46.285Z,101325.69
2023-11-15T09:34:13.617Z,101325.88
2023-11-15T09:36:40.818Z,101320.66
2023-11-15T09:39:11.080Z,101326.78
2023-11-15T09:41:38.685Z,101331.97
2023-11-15T09:44:11.065Z,101321.59
2023-11-15T09:46:39.132Z,101325.16
2023-11-15T09:49:08.544Z,101328.72
2023-11-15T09:51:39.211Z,101330.56
2023-11-15T09:54:13.258Z,101328.03
2023-11-15T09:56:46.750Z,101325.31
2023-11-15T09:59:14.736Z,101327.06
2023-11-15T10:01:47.291Z,101325.38
2023-11-15T10:04:27.536Z,101335.88
2023-11-15T10:07:05.464Z,101332.31
2023-11-15T10:09:37.052Z,101348.88
2023-11-15T10:12:05.544Z,101346.31
2023-11-15T10:14:34.247Z,101351.47
2023-11-15T10:17:04.815Z,101347.06
2023-11-15T10:19:33.181Z,101344.50
2023-11-15T10:22:02.364Z,101345.44
2023-11-15T10:24:30.368Z,101345.53
2023-11-15T10:26:59.486Z,101347.16
2023-11-15T10:29:27.825Z,101339.34
2023-11-15T10:31:58.667Z,101354.97
2023-11-15T10:34:34.172Z,101361.06
2023-11-15T10:37:12.270Z,101355.84
2023-11-15T10:39:45.906Z,101358.47
2023-11-15T10:42:14.274Z,101355.75
2023-11-15T10:44:43.758Z,101359.19
2023-11-15T10:47:13.953Z,101354.03
2023-11-15T10:49:45.968Z,101352.25
2023-11-15T10:52:15.306Z,101367.00
2023-11-15T10:54:44.409Z,101369.50
2023-11-15T10:57:12.992Z,101357.25
2023-11-15T10:59:41.722Z,101367.56
2023-11-15T11:02:11.354Z,101363.16
2023-11-15T11:04:40.472Z,101356.31
2023-11-15T11:07:15.622Z,101357.97
2023-11-15T11:10:11.244Z,101358.84
2023-11-15T11:12:38.498Z,101361.38
2023-11-15T11:15:26.087Z,101358.75
2023-11-15T11:18:13.765Z,101360.28
2023-11-15T11:20:42.683Z,101361.09
2023-11-15T11:23:23.711Z,101362.88
2023-11-15T11:25:53.352Z,101365.50
2023-11-15T11:28:22.377Z,101373.31
2023-11-15T11:31:20.535Z,101371.63
2023-11-15T11:34:09.581Z,101369.94
2023-11-15T11:36:55.241Z,101384.75
2023-11-15T11:39:44.072Z,101367.34
2023-11-15T11:42:27.835Z,101392.59
2023-11-15T11:44:59.070Z,101367.38
2023-11-15T11:47:26.427Z,101376.97
2023-11-15T11:49:53.981Z,101370.13
2023-11-15T11:52:21.302Z,101364.19
2023-11-15T11:54:54.639Z,101373.91
2023-11-15T11:57:23.146Z,101368.66
2023-11-15T12:00:12.779Z,101377.31
2023-11-15T12:02:45.601Z,101363.28
2023-11-15T12:05:14.152Z,101368.50
2023-11-15T12:07:46.284Z,101363.34
2023-11-15T12:10:17.266Z,101377.16
2023-11-15T12:13:04.096Z,101370.31
2023-11-15T12:15:31.566Z,101388.00
2023-11-15T12:18:01.078Z,101394.19
2023-11-15T12:20:35.191Z,101383.06
2023-11-15T12:23:09.572Z,101378.19
2023-11-15T12:25:53.955Z,101385.22
2023-11-15T12:28:32.312Z,101379.19
2023-11-15T12:31:05.209Z,101376.66
2023-11-15T12:33:35.499Z,101381.84
2023-11-15T12:36:05.176Z,101384.41
2023-11-15T12:38:33.560Z,101381.81
2023-11-15T12:41:07.173Z,101380.13
2023-11-15T12:43:35.244Z,101383.66
2023-11-15T12:46:15.871Z,101376.75
2023-11-15T12:48:43.647Z,101380.25
2023-11-15T12:51:10.863Z,101381.09
2023-11-15T12:53:37.989Z,101381.03
2023-11-15T12:56:05.521Z,101382.69
2023-11-15T12:58:32.561Z,101392.28
2023-11-15T13:00:59.698Z,101385.28
2023-11-15T13:03:32.232Z,101395.63
2023-11-15T13:06:09.420Z,101382.66
2023-11-15T13:08:38.953Z,101389.44
2023-11-15T13:11:07.434Z,101382.44
2023-11-15T13:13:34.836Z,101384.16
2023-11-15T13:16:02.060Z,101386.72
2023-11-15T13:18:29.392Z,101380.63
2023-11-15T13:20:59.354Z,101382.38
2023-11-15T13:23:27.039Z,101389.31
2023-11-15T13:25:57.644Z,101379.78
2023-11-15T13:28:25.702Z,101392.03
2023-11-15T13:30:52.802Z,101385.16
2023-11-15T13:33:20.249Z,101387.84
2023-11-15T13:35:47.729Z,101383.72
2023-11-15T13:38:14.909Z,101382.06
2023-11-15T13:40:42.972Z,101388.16
2023-11-15T13:43:10.097Z,101379.50
2023-11-15T13:45:37.205Z,101397.75
2023-11-15T13:48:04.756Z,101396.06
2023-11-15T13:50:31.902Z,101399.56
2023-11-15T13:52:59.142Z,101399.53
2023-11-15T13:55:26.261Z,101396.88
2023-11-15T13:57:53.383Z,101395.16
2023-11-15T14:00:25.184Z,101400.34
2023-11-15T14:02:53.121Z,101398.56
2023-11-15T14:05:22.079Z,101403.72
2023-11-15T14:07:49.146Z,101409.75
2023-11-15T14:10:20.794Z,101407.97
2023-11-15T14:12:47.994Z,101410.53
2023-11-15T14:15:19.907Z,101410.53
2023-11-15T14:17:49.927Z,101411.31
2023-11-15T14:20:19.573Z,101410.44
2023-11-15T14:22:46.726Z,101420.88
2023-11-15T14:25:22.770Z,101426.09
2023-11-15T14:27:54.367Z,101431.34
2023-11-15T14:30:24.979Z,101426.09
2023-11-15T14:32:52.707Z,101431.31
2023-11-15T14:35:20.536Z,101435.69
2023-11-15T14:37:50.132Z,101434.88
2023-11-15T14:40:22.244Z,101444.56
2023-11-15T14:42:52.177Z,101447.19
2023-11-15T14:45:20.521Z,101438.66
2023-11-15T14:47:48.471Z,101445.63
2023-11-15T14:50:17.783Z,101449.19
2023-11-15T14:53:08.257Z,101451.00
2023-11-15T14:55:37.201Z,101452.66
2023-11-15T14:58:04.821Z,101444.16
2023-11-15T15:00:31.918Z,101454.59
2023-11-15T15:02:59.129Z,101449.50
2023-11-15T15:05:26.344Z,101452.97
2023-11-15T15:07:53.449Z,101467.78
2023-11-15T15:10:21.464Z,101464.34
2023-11-15T15:12:49.478Z,101455.75
2023-11-15T15:15:19.655Z,101466.22
2023-11-15T15:17:48.365Z,101459.34
2023-11-15T15:20:19.958Z,101462.81
2023-11-15T15:22:48.182Z,101462.84
2023-11-15T15:25:16.168Z,101451.66
2023-11-15T15:27:43.525Z,101462.09
2023-11-15T15:30:15.001Z,101456.00
2023-11-15T15:32:42.571Z,101467.28
2023-11-15T15:35:13.640Z,101472.53
2023-11-15T15:37:41.618Z,101479.53
2023-11-15T15:40:18.014Z,101470.03
2023-11-15T15:42:46.035Z,101476.97
2023-11-15T15:45:16.113Z,101482.19
2023-11-15T15:47:47.120Z,101496.97
2023-11-15T15:50:15.368Z,101496.09
2023-11-15T15:52:43.564Z,101497.88
2023-11-15T15:55:11.809Z,101493.50
2023-11-15T15:57:39.468Z,101494.47
2023-11-15T16:00:08.343Z,101490.22
2023-11-15T16:02:36.403Z,101484.22
2023-11-15T16:05:08.060Z,101486.00
2023-11-15T16:07:35.528Z,101490.38
2023-11-15T16:10:03.112Z,101489.53
2023-11-15T16:12:32.827Z,101502.50
2023-11-15T16:15:00.269Z,101502.47
2023-11-15T16:17:28.593Z,101504.19
2023-11-15T16:19:58.246Z,101501.56
2023-11-15T16:22:26.485Z,101499.78
2023-11-15T16:24:55.914Z,101508.50
2023-11-15T16:27:28.515Z,101512.00
2023-11-15T16:30:02.182Z,101506.84
2023-11-15T16:32:30.069Z,101499.97
2023-11-15T16:34:57.919Z,101500.88
2023-11-15T16:37:26.199Z,101508.72
2023-11-15T16:39:53.953Z,101500.97
2023-11-15T16:42:21.920Z,101499.28
2023-11-15T16:44:49.334Z,101507.94
2023-11-15T16:47:16.510Z,101506.19
2023-11-15T16:49:43.874Z,101500.16
2023-11-15T16:52:11.641Z,101502.78
2023-11-15T16:54:38.903Z,101510.59
2023-11-15T16:57:06.666Z,101509.75
2023-11-15T16:59:34.422Z,101508.00
2023-11-15T17:02:02.000Z,101508.91
2023-11-15T17:04:29.242Z,101515.03
2023-11-15T17:06:57.567Z,101517.66
2023-11-15T17:09:24.808Z,101520.25
2023-11-15T17:11:52.123Z,101519.41
2023-11-15T17:14:22.232Z,101522.03
2023-11-15T17:16:50.352Z,101524.66
2023-11-15T17:19:20.744Z,101519.44
2023-11-15T17:21:48.537Z,101522.06
2023-11-15T17:24:20.308Z,101528.13
2023-11-15T17:26:48.051Z,101522.09
2023-11-15T17:29:15.463Z,101527.31
2023-11-15T17:31:43.018Z,101527.31
2023-11-15T17:34:12.565Z,101530.75
2023-11-15T17:36:42.096Z,101533.38
2023-11-15T17:39:12.855Z,101532.47
2023-11-15T17:41:40.158Z,101536.84
2023-11-15T17:44:12.994Z,101524.75
2023-11-15T17:46:44.258Z,101533.38
2023-11-15T17:49:12.358Z,101519.59
2023-11-15T17:51:40.054Z,101527.38
2023-11-15T17:54:10.168Z,101523.06
2023-11-15T17:56:37.343Z,101535.16
2023-11-15T17:59:05.916Z,101526.47
2023-11-15T18:01:34.283Z,101539.47
2023-11-15T18:04:02.055Z,101526.53
2023-11-15T18:06:29.218Z,101539.53
2023-11-15T18:08:56.621Z,101521.38
2023-11-15T18:11:23.859Z,101528.31
2023-11-15T18:13:51.168Z,101526.59
2023-11-15T18:16:18.340Z,101518.84
2023-11-15T18:18:45.569Z,101512.84
2023-11-15T18:21:12.841Z,101518.03
2023-11-15T18:23:40.031Z,101512.81
2023-11-15T18:26:07.185Z,101519.72
2023-11-15T18:28:35.068Z,101521.47
2023-11-15T18:31:07.739Z,101518.03
2023-11-15T18:33:40.018Z,101525.78
2023-11-15T18:36:10.718Z,101526.63
2023-11-15T18:38:37.985Z,101529.22
2023-11-15T18:41:06.045Z,101537.91
2023-11-15T18:43:33.127Z,101527.50
2023-11-15T18:46:00.265Z,101527.50
2023-11-15T18:48:27.791Z,101532.69
2023-11-15T18:50:54.949Z,101526.63
2023-11-15T18:53:22.037Z,101537.03
2023-11-15T18:55:49.366Z,101528.34
2023-11-15T18:58:16.511Z,101531.81
2023-11-15T19:00:43.606Z,101537.81
2023-11-15T19:03:12.829Z,101540.38
2023-11-15T19:05:40.775Z,101547.25
2023-11-15T19:08:07.840Z,101536.00
2023-11-15T19:10:34.990Z,101545.50
2023-11-15T19:13:02.144Z,101541.19
2023-11-15T19:15:31.221Z,101541.22
2023-11-15T19:17:58.456Z,101526.59
2023-11-15T19:20:27.365Z,101537.00
2023-11-15T19:22:55.146Z,101533.53
2023-11-15T19:25:23.490Z,101532.66
2023-11-15T19:27:51.070Z,101531.78
2023-11-15T19:30:21.037Z,101531.78
2023-11-15T19:32:48.568Z,101532.69
2023-11-15T19:35:18.281Z,101530.09
2023-11-15T19:37:45.471Z,101537.84
2023-11-15T19:40:13.152Z,101538.72
2023-11-15T19:42:40.220Z,101542.97
2023-11-15T19:45:09.009Z,101530.00
2023-11-15T19:47:36.439Z,101536.06
2023-11-15T19:50:04.087Z,101534.38
2023-11-15T19:52:31.386Z,101543.09
2023-11-15T19:54:59.065Z,101540.47
2023-11-15T19:57:28.162Z,101544.72
2023-11-15T19:59:56.480Z,101530.91
2023-11-15T20:02:29.287Z,101540.44
2023-11-15T20:04:59.368Z,101540.47
2023-11-15T20:07:28.141Z,101541.38
2023-11-15T20:09:55.230Z,101537.03
2023-11-15T20:12:24.877Z,101536.19
2023-11-15T20:14:52.030Z,101542.31
2023-11-15T20:17:19.173Z,101541.50
2023-11-15T20:19:46.306Z,101539.78
2023-11-15T20:22:13.418Z,101539.78
2023-11-15T20:24:40.580Z,101534.59
2023-11-15T20:27:09.097Z,101541.50
2023-11-15T20:29:37.148Z,101538.03
2023-11-15T20:32:04.506Z,101543.25
2023-11-15T20:34:31.691Z,101546.69
2023-11-15T20:36:58.962Z,101545.81
2023-11-15T20:39:28.407Z,101548.41
2023-11-15T20:41:57.313Z,101548.41
2023-11-15T20:44:24.543Z,101546.66
2023-11-15T20:46:51.917Z,101545.81
2023-11-15T20:49:19.298Z,101545.78
2023-11-15T20:51:48.959Z,101541.41
2023-11-15T20:54:17.703Z,101552.66
2023-11-15T20:56:46.152Z,101544.03
2023-11-15T20:59:14.049Z,101536.28
2023-11-15T21:01:41.220Z,101532.91
2023-11-15T21:04:12.648Z,101534.66
2023-11-15T21:06:39.808Z,101534.63
2023-11-15T21:09:10.952Z,101533.78
2023-11-15T21:11:42.057Z,101530.31
2023-11-15T21:14:09.549Z,101524.25
2023-11-15T21:16:38.139Z,101529.47
2023-11-15T21:19:05.556Z,101529.44
2023-11-15T21:21:34.319Z,101534.59
2023-11-15T21:24:02.597Z,101530.22
2023-11-15T21:26:29.742Z,101525.91
2023-11-15T21:29:00.160Z,101530.22
2023-11-15T21:31:27.957Z,101528.50
2023-11-15T21:33:55.101Z,101526.75
2023-11-15T21:36:22.430Z,101530.25
2023-11-15T21:38:49.478Z,101520.75
2023-11-15T21:41:17.757Z,101530.25
2023-11-15T21:43:45.006Z,101529.34
2023-11-15T21:46:12.110Z,101527.75
2023-11-15T21:48:39.259Z,101526.00
2023-11-15T21:51:06.678Z,101511.28
2023-11-15T21:53:34.528Z,101519.91
2023-11-15T21:56:03.072Z,101510.41
2023-11-15T21:58:30.825Z,101513.88
2023-11-15T22:00:57.991Z,101507.84
2023-11-15T22:03:25.341Z,101502.66
2023-11-15T22:05:52.705Z,101504.38
2023-11-15T22:08:19.757Z,101511.31
2023-11-15T22:10:47.254Z,101506.97
2023-11-15T22:13:14.431Z,101511.28
2023-11-15T22:15:41.590Z,101506.94
2023-11-15T22:18:08.940Z,101510.41
2023-11-15T22:20:36.767Z,101503.44
2023-11-15T22:23:05.249Z,101502.56
2023-11-15T22:25:32.541Z,101499.94
2023-11-15T22:27:59.659Z,101505.97
2023-11-15T22:30:26.843Z,101512.03
2023-11-15T22:32:53.980Z,101510.31
2023-11-15T22:35:22.196Z,101512.91
2023-11-15T22:37:49.435Z,101519.84
2023-11-15T22:40:16.520Z,101518.97
2023-11-15T22:42:48.733Z,101522.50
2023-11-15T22:45:18.429Z,101522.47
2023-11-15T22:47:45.607Z,101526.78
2023-11-15T22:50:12.691Z,101541.47
2023-11-15T22:52:39.742Z,101536.28
2023-11-15T22:55:08.742Z,101549.22
2023-11-15T22:57:35.841Z,101547.53
2023-11-15T23:00:03.896Z,101551.84
2023-11-15T23:02:32.426Z,101551.00
2023-11-15T23:04:59.726Z,101547.56
2023-11-15T23:07:27.035Z,101540.66
2023-11-15T23:09:54.121Z,101538.94
2023-11-15T23:12:24.415Z,101535.50
2023-11-15T23:14:51.851Z,101532.94
2023-11-15T23:17:19.716Z,101542.44
2023-11-15T23:19:50.648Z,101537.25
2023-11-15T23:22:17.737Z,101539.81
2023-11-15T23:24:44.840Z,101538.13
2023-11-15T23:27:11.938Z,101549.31
2023-11-15T23:29:39.036Z,101538.97
2023-11-15T23:32:06.736Z,101542.44
2023-11-15T23:34:33.811Z,101532.13
2023-11-15T23:37:00.913Z,101533.84
2023-11-15T23:39:28.097Z,101536.44
2023-11-15T23:41:55.295Z,101530.34
2023-11-15T23:44:22.455Z,101528.59
2023-11-15T23:46:52.463Z,101528.59
2023-11-15T23:49:20.124Z,101532.91
2023-11-15T23:51:47.178Z,101531.25
2023-11-15T23:54:14.305Z,101530.38
2023-11-15T23:56:43.037Z,101529.56
2023-11-15T23:59:10.283Z,101526.09
